• Join FlightAware (Why Join?)
  • Login
  • US Flag 
09:28PM EST


 

Airport Tracker/Info


-or-


 

Live Flight TrackerFlight Track Log ✈ EJA929 ✈ 07-Aug-2013 ✈ KAPA - KSAF

Flight Track Log - Related Links

Times and Time Zones

All times are in EDT time to prevent confusion due to time zone crossing. See the EJA929 flight status page for this flight to view local times or setup timezone preferences in your user account.

Time Position Orientation Groundspeed Altitude Reporting Facility
EDT Latitude Longitude Course Direction KTS MPH feet Rate Location/Type
02:35PM 39.4167 -104.8500 180° South 301 346 11,900  Level Denver TRACON
02:36PM 39.3344 -104.8325 171° South 352 405 14,300 2,700 Climbing Denver Center
02:37PM 39.2256 -104.7967 166° South 376 433 17,500 2,400 Climbing Denver Center
02:38PM 39.1172 -104.7625 166° South 387 445 19,300 1,680 Climbing Denver Center
02:39PM 38.9427 -105.0555 194° South  Level Estimated
02:39PM 39.0097 -104.7578 178° South 395 455 21,000  Level Denver Center
02:40PM 38.9103 -104.8203 206° Southwest 396 456 22,300 1,500 Climbing Denver Center
02:41PM 38.7956 -104.8908 206° Southwest 407 468 24,200 1,680 Climbing Denver Center
02:42PM 38.7150 -104.9431 207° Southwest 407 468 25,800 840 Climbing Denver Center
02:43PM 38.5853 -105.0314 208° Southwest 413 475 26,000 60 Climbing Denver Center
02:44PM 38.4781 -105.1075 209° Southwest 446 513 26,000  Level Denver Center
02:45PM 38.3500 -105.1958 208° Southwest 464 534 26,000  Level Denver Center
02:46PM 38.2394 -105.2711 208° Southwest 470 541 26,000  Level Denver Center
02:47PM 38.1125 -105.3575 208° Southwest 465 535 26,000  Level Denver Center
02:48PM 38.0047 -105.4308 208° Southwest 461 531 26,000  Level Denver Center
02:49PM 37.8803 -105.5142 208° Southwest 455 524 26,000  Level Denver Center
02:50PM 37.7717 -105.5875 208° Southwest 460 529 26,000  Level Denver Center
02:51PM 37.6450 -105.6628 205° Southwest 455 524 26,000  Level Denver Center
02:52PM 37.5317 -105.7203 202° Southwest 455 524 26,000  Level Denver Center
02:53PM 37.4006 -105.7878 202° Southwest 455 524 26,000  Level Denver Center
02:54PM 37.2869 -105.8414 201° Southwest 454 522 26,000  Level Denver Center
02:55PM 37.1736 -105.8933 200° South 452 520 26,000  Level Denver Center
02:56PM 37.0528 -105.9825 211° Southwest 452 520 26,000  Level Denver Center
02:57PM 36.9586 -106.0728 217° Southwest 454 522 26,000  Level Denver Center
02:58PM 36.8497 -106.1869 220° Southwest 454 522 26,000  Level Denver Center
02:59PM 36.7367 -106.2192 193° South 461 531 26,000  Level Denver Center
03:00PM 36.6094 -106.2097 177° South 460 529 26,000  Level Denver Center
03:01PM 36.5208 -106.2003 175° South 464 534 26,000 -780 Level Albuquerque Center
03:02PM 36.3906 -106.1833 174° South 467 537 24,800 -2,100 Descending Albuquerque Center
03:03PM 36.2631 -106.1667 174° South 464 534 21,700 -3,000 Descending Albuquerque Center
03:04PM 36.1217 -106.1494 174° South 429 494 18,700 -2,880 Descending Albuquerque Center
03:05PM 36.0169 -106.1369 174° South 386 444 15,800 -2,700 Descending Albuquerque Center
03:06PM 35.9181 -106.1250 174° South 364 419 13,200 -1,440 Descending Albuquerque Center
03:07PM 35.8308 -106.1142 174° South 349 402 12,900 -1,260 Descending Albuquerque Center
03:08PM 35.7428 -106.0911 168° South 330 380 10,700 -1,800 Descending Albuquerque Center
03:09PM 35.6839 -106.0139 133° Southeast 247 284 9,200 -1,620 Descending Albuquerque Center
03:10PM 35.6586 -106.0533 232° Southwest 166 191 7,400 -1,380 Descending Albuquerque Center
03:11PM 35.6294 -106.0783 215° Southwest 145 167 6,400 -1,020 Descending Albuquerque Center